TimeCDT,TemperatureF,Dew PointF,Humidity,Sea Level PressureIn,VisibilityMPH,Wind Direction,Wind SpeedMPH,Gust SpeedMPH,PrecipitationIn,Events,Conditions,WindDirDegrees,DateUTC
12:53 AM,7.0,1.9,80,30.38,10.0,NW,4.6,-,N/A,,Clear,320,2013-03-13 05:53:00
1:53 AM,3.9,-2.0,76,30.39,10.0,WNW,4.6,-,N/A,,Clear,290,2013-03-13 06:53:00
2:53 AM,3.0,-2.9,76,30.40,10.0,Calm,Calm,-,N/A,,Clear,0,2013-03-13 07:53:00
3:53 AM,3.0,-2.0,80,30.40,10.0,West,3.5,-,N/A,,Clear,280,2013-03-13 08:53:00
4:53 AM,-0.4,-5.8,78,30.33,10.0,Calm,Calm,-,N/A,,Clear,0,2013-03-13 09:53:00
5:53 AM,-5.1,-9.0,83,30.41,10.0,Calm,Calm,-,N/A,,Clear,0,2013-03-13 10:53:00
6:53 AM,-0.9,-6.0,79,30.42,10.0,Calm,Calm,-,N/A,,Clear,0,2013-03-13 11:53:00
7:53 AM,-0.9,-7.1,75,30.43,10.0,WSW,3.5,-,N/A,,Clear,240,2013-03-13 12:53:00
8:53 AM,-2.0,-7.1,79,30.44,10.0,Calm,Calm,-,N/A,,Clear,0,2013-03-13 13:53:00
9:53 AM,3.9,-0.0,84,30.44,10.0,Calm,Calm,-,N/A,,Clear,0,2013-03-13 14:53:00
10:53 AM,10.0,1.9,70,30.44,10.0,Calm,Calm,-,N/A,,Clear,0,2013-03-13 15:53:00
11:53 AM,16.0,5.0,62,30.42,10.0,Calm,Calm,-,N/A,,Clear,0,2013-03-13 16:53:00
12:53 PM,16.0,7.0,68,30.41,10.0,SSW,6.9,-,N/A,,Clear,210,2013-03-13 17:53:00
1:53 PM,18.0,9.0,68,30.40,10.0,South,9.2,-,N/A,,Clear,170,2013-03-13 18:53:00
2:53 PM,18.0,9.0,68,30.36,10.0,SSE,8.1,-,N/A,,Clear,160,2013-03-13 19:53:00
3:53 PM,19.0,9.0,65,30.33,10.0,SE,10.4,-,N/A,,Clear,140,2013-03-13 20:53:00
4:53 PM,19.0,10.0,68,30.33,10.0,SSE,9.2,-,N/A,,Scattered Clouds,160,2013-03-13 21:53:00
5:53 PM,19.0,10.0,68,30.30,10.0,SSE,13.8,-,N/A,,Overcast,150,2013-03-13 22:53:00
6:53 PM,19.9,10.9,68,30.27,10.0,SSE,12.7,-,N/A,,Overcast,160,2013-03-13 23:53:00
7:53 PM,19.9,12.0,71,30.24,10.0,SSE,16.1,20.7,N/A,,Overcast,150,2013-03-14 00:53:00
8:53 PM,21.0,12.9,71,30.22,10.0,SSE,13.8,-,N/A,,Overcast,150,2013-03-14 01:53:00
9:53 PM,21.9,14.0,72,30.19,10.0,SSE,12.7,-,N/A,,Overcast,150,2013-03-14 02:53:00
10:49 PM,23.0,15.8,74,30.10,1.0,SSE,17.3,-,0.00,Snow,Light Snow,150,2013-03-14 03:49:00
10:53 PM,23.0,16.0,74,30.16,1.0,SE,17.3,-,0.00,Snow,Light Snow,140,2013-03-14 03:53:00
11:02 PM,21.2,17.6,86,30.09,0.8,SE,15.0,26.5,0.00,Snow,Light Snow,140,2013-03-14 04:02:00
11:09 PM,23.0,17.6,80,30.08,1.2,SE,17.3,-,0.01,Snow,Light Snow,140,2013-03-14 04:09:00
11:23 PM,24.8,17.6,74,30.07,3.0,SE,17.3,-,0.02,Snow,Light Snow,140,2013-03-14 04:23:00
11:32 PM,24.8,17.6,74,30.07,7.0,SE,13.8,-,0.02,,Overcast,130,2013-03-14 04:32:00
11:53 PM,25.0,19.0,78,30.12,6.0,SE,15.0,-,0.02,Snow,Light Snow,130,2013-03-14 04:53:00